Time;durP1;ratioP1;P1;durP2;ratioP2;P2;SDS_P1;SDS_P2;PMS_P1;PMS_P2;Temp;Humidity;BMP_temperature;BMP_pressure;BME280_temperature;BME280_humidity;BME280_pressure;Samples;Min_cycle;Max_cycle;Signal;HPM_P1;HPM_P2
2023/07/08 00:00:17;;;;;;;3.33;2.33;;;22.70;99.90;;;;;;5073885;28;20450;-79
2023/07/08 00:02:44;;;;;;;4.07;2.70;;;22.60;99.90;;;;;;5072844;28;20562;-79
2023/07/08 00:05:16;;;;;;;4.90;2.03;;;22.60;99.90;;;;;;5073832;28;20494;-80
2023/07/08 00:07:43;;;;;;;3.40;2.00;;;22.60;99.90;;;;;;5073650;28;20454;-78
2023/07/08 00:10:15;;;;;;;5.37;2.37;;;22.60;99.90;;;;;;5073884;28;20462;-78
2023/07/08 00:12:42;;;;;;;4.40;2.07;;;22.50;99.90;;;;;;5072676;28;20478;-80
2023/07/08 00:15:11;;;;;;;3.33;2.37;;;22.60;99.90;;;;;;5073200;28;20454;-77
2023/07/08 00:17:38;;;;;;;3.73;1.87;;;22.60;99.90;;;;;;5072908;28;20949;-80
2023/07/08 00:20:13;;;;;;;4.37;2.50;;;22.60;99.90;;;;;;5073750;28;20872;-78
2023/07/08 00:22:41;;;;;;;4.17;2.10;;;22.70;99.90;;;;;;5072989;28;21042;-80
2023/07/08 00:25:10;;;;;;;3.90;2.30;;;22.70;99.90;;;;;;5073060;28;20462;-78
2023/07/08 00:27:37;;;;;;;4.63;2.23;;;22.70;99.90;;;;;;5067799;28;20478;-80
2023/07/08 00:30:19;;;;;;;4.93;2.83;;;22.60;99.90;;;;;;5072133;28;20447;-76
2023/07/08 00:32:46;;;;;;;5.40;2.53;;;22.60;99.90;;;;;;5072646;28;20896;-77
2023/07/08 00:35:13;;;;;;;4.20;2.53;;;22.60;99.90;;;;;;5072619;28;20453;-77
2023/07/08 00:37:40;;;;;;;3.43;2.20;;;22.50;99.90;;;;;;5073121;28;20457;-78
2023/07/08 00:40:24;;;;;;;4.00;2.70;;;22.50;99.90;;;;;;5072867;28;20450;-78
2023/07/08 00:42:52;;;;;;;2.63;1.83;;;22.30;99.90;;;;;;5075952;28;20479;-79
2023/07/08 00:45:32;;;;;;;3.53;2.47;;;22.30;99.90;;;;;;5076333;28;20995;-78
2023/07/08 00:48:05;;;;;;;5.97;2.10;;;22.20;99.90;;;;;;5077482;28;20451;-77
2023/07/08 00:50:31;;;;;;;3.97;2.20;;;22.30;99.90;;;;;;5076917;28;20459;-79
2023/07/08 00:53:27;;;;;;;2.67;2.07;;;22.30;99.90;;;;;;5076204;28;20998;-77
2023/07/08 00:55:58;;;;;;;3.27;2.10;;;22.30;99.90;;;;;;5077166;28;20953;-79
2023/07/08 00:58:29;;;;;;;3.27;1.83;;;22.30;99.90;;;;;;5076517;28;20863;-78
2023/07/08 01:00:59;;;;;;;7.40;2.10;;;22.30;99.90;;;;;;5076686;28;20542;-79
2023/07/08 01:03:27;;;;;;;2.93;2.00;;;22.30;99.90;;;;;;5076177;28;20443;-78
2023/07/08 01:05:59;;;;;;;3.10;2.10;;;22.30;99.90;;;;;;5076373;28;20486;-80
2023/07/08 01:08:28;;;;;;;3.33;2.47;;;22.30;99.90;;;;;;5076664;28;20461;-79
2023/07/08 01:11:01;;;;;;;5.03;2.40;;;22.30;99.90;;;;;;5076582;28;20498;-78
2023/07/08 01:13:29;;;;;;;3.03;2.10;;;22.20;99.90;;;;;;5075898;28;20458;-77
2023/07/08 01:15:59;;;;;;;3.53;1.90;;;22.20;99.90;;;;;;5075598;28;20832;-78
2023/07/08 01:18:26;;;;;;;3.67;2.07;;;22.20;99.90;;;;;;5076787;28;20486;-78
2023/07/08 01:20:55;;;;;;;3.10;1.93;;;22.10;99.90;;;;;;5075732;28;20455;-80
2023/07/08 01:23:23;;;;;;;3.23;2.20;;;22.10;99.90;;;;;;5076229;28;20447;-78
2023/07/08 01:25:50;;;;;;;3.60;2.13;;;22.10;99.90;;;;;;5076751;28;21001;-78
2023/07/08 01:28:17;;;;;;;4.80;2.53;;;22.10;99.90;;;;;;5077619;28;20447;-79
2023/07/08 01:30:46;;;;;;;3.27;2.33;;;22.10;99.90;;;;;;5058041;28;20458;-80
2023/07/08 01:33:17;;;;;;;4.23;2.63;;;22.00;99.90;;;;;;5070511;28;21016;-79
2023/07/08 01:35:44;;;;;;;4.90;2.63;;;22.00;99.90;;;;;;5077218;28;20451;-79
2023/07/08 01:38:14;;;;;;;5.30;2.73;;;21.90;99.90;;;;;;5077003;28;20942;-79
2023/07/08 01:40:50;;;;;;;3.50;1.97;;;21.90;99.90;;;;;;5077637;28;20450;-78
2023/07/08 01:43:17;;;;;;;3.13;1.90;;;21.90;99.90;;;;;;5076239;28;20461;-78
2023/07/08 01:45:44;;;;;;;4.30;2.30;;;21.80;99.90;;;;;;5075600;28;20483;-78
2023/07/08 01:48:14;;;;;;;3.70;1.90;;;21.80;99.90;;;;;;5075049;28;20462;-78
2023/07/08 01:50:46;;;;;;;4.10;2.40;;;21.70;99.90;;;;;;5075154;28;20432;-78
2023/07/08 01:53:16;;;;;;;3.20;2.10;;;21.60;99.90;;;;;;5075306;28;20837;-78
2023/07/08 01:55:44;;;;;;;4.57;2.33;;;21.60;99.90;;;;;;5074634;28;20947;-78
2023/07/08 01:58:11;;;;;;;3.07;1.90;;;21.50;99.90;;;;;;5075309;28;20439;-78
2023/07/08 02:00:38;;;;;;;4.67;2.00;;;21.40;99.90;;;;;;5074880;28;20550;-78
2023/07/08 02:03:05;;;;;;;2.90;2.03;;;21.40;99.90;;;;;;5074688;28;20842;-78
2023/07/08 02:05:31;;;;;;;4.37;2.57;;;21.30;99.90;;;;;;5075374;28;20546;-79
2023/07/08 02:07:58;;;;;;;5.40;3.00;;;21.20;99.90;;;;;;5075491;28;20455;-78
2023/07/08 02:10:26;;;;;;;3.43;2.17;;;21.20;99.90;;;;;;5075471;28;20443;-80
2023/07/08 02:12:54;;;;;;;3.13;2.07;;;21.20;99.90;;;;;;5074886;28;20470;-77
2023/07/08 02:15:21;;;;;;;3.83;2.17;;;21.10;99.90;;;;;;5075106;28;20443;-78
2023/07/08 02:17:48;;;;;;;3.70;2.20;;;21.10;99.90;;;;;;5074233;28;20457;-79
2023/07/08 02:20:15;;;;;;;5.03;2.40;;;21.00;99.90;;;;;;5076555;28;20467;-77
2023/07/08 02:22:42;;;;;;;6.23;2.13;;;21.00;99.90;;;;;;5076498;28;20487;-78
2023/07/08 02:25:10;;;;;;;3.77;2.00;;;20.90;99.90;;;;;;5076617;28;20447;-79
2023/07/08 02:27:37;;;;;;;3.80;2.20;;;20.90;99.90;;;;;;5076534;28;20485;-78
2023/07/08 02:30:07;;;;;;;3.27;2.20;;;20.80;99.90;;;;;;5076413;28;20459;-79
2023/07/08 02:32:34;;;;;;;6.40;2.60;;;20.70;99.90;;;;;;5076183;28;20475;-80
2023/07/08 02:35:01;;;;;;;4.37;2.33;;;20.70;99.90;;;;;;5075997;28;20483;-79
2023/07/08 02:37:28;;;;;;;5.13;2.60;;;20.60;99.90;;;;;;5075868;28;20821;-78
2023/07/08 02:39:54;;;;;;;3.97;2.10;;;20.60;99.90;;;;;;5075839;28;20805;-78
2023/07/08 02:42:21;;;;;;;5.00;2.40;;;20.50;99.90;;;;;;5075358;28;20481;-80
2023/07/08 02:44:48;;;;;;;5.47;3.17;;;20.50;99.90;;;;;;5075609;28;20565;-79
2023/07/08 02:47:16;;;;;;;3.60;1.90;;;20.50;99.90;;;;;;5074887;28;20800;-79
2023/07/08 02:49:43;;;;;;;3.93;2.40;;;20.40;99.90;;;;;;5075905;28;20538;-79
2023/07/08 02:52:10;;;;;;;4.30;2.20;;;20.40;99.90;;;;;;5075098;28;20474;-78
2023/07/08 02:54:37;;;;;;;3.80;2.17;;;20.40;99.90;;;;;;5075899;28;20457;-78
2023/07/08 02:57:04;;;;;;;4.20;2.20;;;20.40;99.90;;;;;;5074924;28;20930;-78
2023/07/08 02:59:31;;;;;;;4.77;2.30;;;20.40;99.90;;;;;;5074733;28;20455;-78
2023/07/08 03:01:56;;;;;;;4.33;2.27;;;20.40;99.90;;;;;;5076053;28;21093;-80
2023/07/08 03:04:25;;;;;;;3.70;2.50;;;20.40;99.90;;;;;;5075309;28;20502;-81
2023/07/08 03:06:52;;;;;;;5.33;2.20;;;20.40;99.90;;;;;;5075637;28;20221;-78
2023/07/08 03:09:18;;;;;;;8.90;2.43;;;20.30;99.90;;;;;;5075542;28;20508;-79
2023/07/08 03:11:45;;;;;;;3.87;2.43;;;20.30;99.90;;;;;;5075229;28;20572;-80
2023/07/08 03:14:12;;;;;;;5.93;2.63;;;20.30;99.90;;;;;;5075007;28;20442;-80
2023/07/08 03:16:39;;;;;;;3.80;2.23;;;20.20;99.90;;;;;;5074190;28;20461;-78
2023/07/08 03:19:06;;;;;;;3.23;2.43;;;20.20;1.00;;;;;;5073694;28;20447;-78
2023/07/08 03:21:34;;;;;;;3.57;1.97;;;20.20;99.90;;;;;;5074062;28;20485;-78
2023/07/08 03:24:01;;;;;;;3.30;2.10;;;20.20;1.00;;;;;;5074133;28;20453;-78
2023/07/08 03:26:28;;;;;;;3.87;2.17;;;20.10;1.00;;;;;;5072055;28;21040;-80
2023/07/08 03:28:55;;;;;;;3.93;2.07;;;20.10;1.00;;;;;;5073691;28;20457;-79
2023/07/08 03:31:22;;;;;;;3.87;2.00;;;20.10;1.00;;;;;;5073595;28;20477;-78
2023/07/08 03:33:48;;;;;;;7.37;2.50;;;20.00;1.00;;;;;;5073855;28;20542;-79
2023/07/08 03:36:23;;;;;;;3.50;2.50;;;20.00;1.00;;;;;;5072540;28;20814;-77
2023/07/08 03:38:52;;;;;;;2.80;2.10;;;20.00;1.00;;;;;;5073378;28;20460;-78
2023/07/08 03:41:18;;;;;;;4.10;2.80;;;20.00;1.00;;;;;;5072862;28;20467;-78
2023/07/08 03:43:45;;;;;;;4.50;2.10;;;20.00;1.00;;;;;;5072970;28;20463;-78
2023/07/08 03:46:12;;;;;;;3.10;2.07;;;20.00;1.00;;;;;;5072708;28;20455;-78
2023/07/08 03:48:39;;;;;;;5.90;2.77;;;20.00;1.00;;;;;;5072693;28;20545;-77
2023/07/08 03:51:10;;;;;;;3.20;2.30;;;19.90;1.00;;;;;;5072539;28;20504;-78
2023/07/08 03:53:37;;;;;;;3.23;2.33;;;19.90;1.00;;;;;;5072536;28;20867;-79
2023/07/08 03:56:05;;;;;;;4.07;2.53;;;19.90;1.00;;;;;;5072361;28;20447;-77
2023/07/08 03:58:32;;;;;;;8.87;2.47;;;19.90;1.00;;;;;;5073289;28;20800;-78
2023/07/08 04:00:59;;;;;;;8.00;2.80;;;19.80;1.00;;;;;;5072319;28;20463;-78
2023/07/08 04:03:26;;;;;;;4.60;2.47;;;19.80;1.00;;;;;;5073166;28;20466;-79
2023/07/08 04:05:52;;;;;;;3.90;2.60;;;19.80;1.00;;;;;;5071689;28;20805;-78
2023/07/08 04:08:19;;;;;;;5.63;2.40;;;19.80;1.00;;;;;;5072797;28;20501;-79
2023/07/08 04:10:46;;;;;;;3.67;2.40;;;19.70;1.00;;;;;;5072018;28;20453;-78
2023/07/08 04:13:14;;;;;;;5.43;3.07;;;19.70;1.00;;;;;;5072489;28;20458;-78
2023/07/08 04:15:41;;;;;;;4.27;2.80;;;19.60;45.30;;;;;;5071072;28;20542;-78
2023/07/08 04:18:08;;;;;;;4.27;2.30;;;19.60;99.90;;;;;;5072057;28;20461;-77
2023/07/08 04:20:35;;;;;;;4.07;2.67;;;19.60;99.90;;;;;;5071974;28;20453;-78
2023/07/08 04:23:02;;;;;;;3.30;2.30;;;19.60;99.90;;;;;;5071616;28;20907;-79
2023/07/08 04:25:29;;;;;;;4.13;2.70;;;19.60;99.90;;;;;;5051435;28;20448;-77
2023/07/08 04:27:56;;;;;;;4.20;2.63;;;19.60;99.90;;;;;;5052118;28;20485;-79
2023/07/08 04:30:26;;;;;;;5.20;2.70;;;19.60;99.90;;;;;;5062055;28;20459;-78
2023/07/08 04:32:53;;;;;;;3.60;2.50;;;19.60;99.90;;;;;;5072976;28;21102;-78
2023/07/08 04:35:20;;;;;;;4.90;2.80;;;19.60;99.90;;;;;;5072085;28;20459;-78
2023/07/08 04:37:47;;;;;;;4.10;2.70;;;19.60;1.00;;;;;;5072722;28;20443;-78
2023/07/08 04:40:18;;;;;;;3.70;2.60;;;19.70;99.90;;;;;;5072229;28;20455;-79
2023/07/08 04:42:47;;;;;;;3.20;2.33;;;19.70;99.90;;;;;;5074573;28;20548;-77
2023/07/08 04:45:16;;;;;;;3.57;2.70;;;19.80;1.00;;;;;;5070046;28;20486;-79
2023/07/08 04:47:46;;;;;;;4.43;3.23;;;19.80;99.90;;;;;;5067082;28;20479;-78
2023/07/08 04:50:16;;;;;;;4.47;2.80;;;19.90;1.00;;;;;;5073414;28;20928;-79
2023/07/08 04:52:43;;;;;;;5.00;4.03;;;19.90;99.90;;;;;;5072985;28;20478;-80
2023/07/08 04:55:10;;;;;;;4.50;3.40;;;19.90;56.20;;;;;;5073038;28;20455;-79
2023/07/08 04:57:37;;;;;;;3.87;2.70;;;20.00;1.00;;;;;;5073376;28;20477;-80
2023/07/08 05:00:07;;;;;;;3.83;3.00;;;20.10;24.30;;;;;;5074112;28;20447;-78
2023/07/08 05:02:34;;;;;;;4.17;3.00;;;20.10;1.00;;;;;;5092632;22;20561;-80
2023/07/08 05:05:03;;;;;;;4.67;2.77;;;20.20;1.00;;;;;;5073562;28;20482;-82
2023/07/08 05:07:30;;;;;;;4.27;3.07;;;20.20;1.00;;;;;;5074361;28;20485;-82
2023/07/08 05:09:57;;;;;;;4.20;2.90;;;20.20;1.00;;;;;;5078165;28;20546;-82
2023/07/08 05:12:23;;;;;;;3.97;3.00;;;20.30;99.90;;;;;;5077366;28;20536;-81
2023/07/08 05:14:50;;;;;;;3.97;3.03;;;20.30;99.90;;;;;;5077900;28;20443;-82
2023/07/08 05:17:17;;;;;;;4.93;2.80;;;20.30;99.90;;;;;;5074345;28;21010;-80
2023/07/08 05:19:45;;;;;;;8.53;3.43;;;20.30;99.90;;;;;;5075821;28;20842;-82
2023/07/08 05:22:13;;;;;;;4.30;2.33;;;20.40;99.90;;;;;;5075447;28;20521;-85
2023/07/08 05:24:41;;;;;;;3.67;2.50;;;20.40;1.00;;;;;;5076049;28;20973;-83
2023/07/08 05:27:07;;;;;;;6.70;3.00;;;20.40;1.00;;;;;;5073113;28;20479;-83
2023/07/08 05:29:34;;;;;;;3.50;2.73;;;20.40;1.00;;;;;;5078047;28;20447;-84
2023/07/08 05:32:01;;;;;;;3.90;2.90;;;20.40;1.00;;;;;;5076912;28;20545;-83
2023/07/08 05:34:28;;;;;;;3.63;2.30;;;20.30;1.00;;;;;;5078252;28;20519;-84
2023/07/08 05:36:55;;;;;;;4.00;2.63;;;20.30;1.00;;;;;;5077993;28;20461;-84
2023/07/08 05:39:23;;;;;;;3.83;2.80;;;20.50;1.00;;;;;;5078109;28;20443;-83
2023/07/08 05:41:50;;;;;;;4.07;2.33;;;20.60;1.00;;;;;;5077414;28;20545;-83
2023/07/08 05:44:17;;;;;;;5.73;2.70;;;20.70;99.90;;;;;;5077574;28;20486;-85
2023/07/08 05:46:43;;;;;;;4.20;3.00;;;20.70;1.00;;;;;;5076225;28;20458;-80
2023/07/08 05:49:10;;;;;;;4.00;3.23;;;20.80;99.90;;;;;;5076979;28;20973;-79
2023/07/08 05:51:37;;;;;;;5.33;3.63;;;20.80;99.90;;;;;;5071844;28;20555;-81
2023/07/08 05:54:04;;;;;;;4.30;2.70;;;20.90;99.90;;;;;;5059160;28;20467;-80
2023/07/08 05:56:32;;;;;;;4.60;3.83;;;21.00;92.70;;;;;;5057950;28;20461;-81
2023/07/08 05:58:59;;;;;;;4.60;2.80;;;21.00;99.90;;;;;;5071351;28;20530;-81
2023/07/08 06:01:26;;;;;;;3.80;2.87;;;21.10;65.00;;;;;;5079749;28;20537;-82
2023/07/08 06:03:53;;;;;;;4.50;3.17;;;21.10;1.00;;;;;;5079330;28;20466;-81
2023/07/08 06:06:19;;;;;;;4.07;2.90;;;21.10;1.00;;;;;;5079292;28;20454;-81
2023/07/08 06:08:46;;;;;;;6.53;3.10;;;21.20;1.00;;;;;;5079638;28;20489;-82
2023/07/08 06:11:13;;;;;;;4.67;3.03;;;21.20;1.00;;;;;;5080520;28;20462;-82
2023/07/08 06:13:41;;;;;;;5.50;2.70;;;21.30;1.00;;;;;;5079373;28;20473;-80
2023/07/08 06:16:08;;;;;;;5.07;3.40;;;21.30;1.00;;;;;;5079322;28;20449;-81
2023/07/08 06:18:35;;;;;;;5.13;2.77;;;21.40;1.00;;;;;;5073533;28;20458;-82
2023/07/08 06:21:02;;;;;;;3.97;2.50;;;21.40;1.00;;;;;;5060795;28;20444;-81
2023/07/08 06:23:29;;;;;;;4.83;2.93;;;21.50;1.00;;;;;;5061852;28;20513;-81
2023/07/08 06:25:56;;;;;;;4.03;2.87;;;21.50;1.00;;;;;;5068069;28;20482;-82
2023/07/08 06:28:23;;;;;;;4.37;3.27;;;21.50;1.00;;;;;;5075148;28;21004;-82
2023/07/08 06:30:51;;;;;;;3.77;2.43;;;21.60;1.00;;;;;;5081003;28;20477;-81
2023/07/08 06:33:18;;;;;;;4.57;3.03;;;21.70;1.00;;;;;;5082156;28;20466;-81
2023/07/08 06:35:45;;;;;;;4.63;2.93;;;21.70;1.00;;;;;;5081241;28;20443;-82
2023/07/08 06:38:12;;;;;;;5.90;2.97;;;21.80;1.00;;;;;;5082232;28;20512;-82
2023/07/08 06:40:39;;;;;;;3.73;2.60;;;21.80;1.00;;;;;;5087997;28;20474;-81
2023/07/08 06:43:06;;;;;;;4.37;2.70;;;21.90;1.00;;;;;;5077815;28;20558;-81
2023/07/08 06:45:32;;;;;;;5.70;2.63;;;21.90;1.00;;;;;;5076700;28;20459;-81
2023/07/08 06:48:01;;;;;;;3.83;2.53;;;22.00;99.90;;;;;;5062066;28;20490;-83
2023/07/08 06:50:27;;;;;;;4.00;2.90;;;22.10;99.90;;;;;;5078382;28;20451;-79
2023/07/08 06:52:54;;;;;;;4.80;3.60;;;22.10;99.90;;;;;;5078433;28;20559;-82
2023/07/08 06:55:21;;;;;;;4.17;2.80;;;22.20;99.90;;;;;;5079048;28;20487;-79
2023/07/08 06:57:48;;;;;;;6.20;3.07;;;22.30;99.90;;;;;;5079048;28;20454;-82
2023/07/08 07:00:15;;;;;;;5.43;3.33;;;22.40;1.00;;;;;;5068448;28;20459;-83
2023/07/08 07:02:42;;;;;;;4.70;3.27;;;22.50;1.00;;;;;;5079498;28;20561;-83
2023/07/08 07:05:10;;;;;;;5.30;3.30;;;22.50;99.90;;;;;;5080249;28;20538;-81
2023/07/08 07:07:37;;;;;;;5.87;3.57;;;22.60;99.90;;;;;;5077703;28;20502;-80
2023/07/08 07:10:05;;;;;;;4.10;3.03;;;22.70;99.90;;;;;;5086684;28;20514;-80
2023/07/08 07:12:32;;;;;;;4.87;2.77;;;22.80;99.90;;;;;;5087818;28;20481;-80
2023/07/08 07:14:59;;;;;;;6.30;3.30;;;22.90;99.90;;;;;;5094152;28;20478;-83
2023/07/08 07:17:26;;;;;;;4.10;2.97;;;22.90;99.90;;;;;;5093588;28;20516;-81
2023/07/08 07:19:53;;;;;;;4.47;3.30;;;23.00;99.90;;;;;;5094362;28;20459;-83
2023/07/08 07:22:21;;;;;;;3.80;2.80;;;23.10;99.90;;;;;;5093817;28;20569;-81
2023/07/08 07:24:48;;;;;;;5.70;3.60;;;23.20;99.90;;;;;;5084974;28;20519;-83
2023/07/08 07:27:15;;;;;;;4.60;3.53;;;23.20;99.90;;;;;;5080261;28;20450;-82
2023/07/08 07:29:45;;;;;;;4.37;3.10;;;23.30;99.90;;;;;;5082555;28;20482;-83
2023/07/08 07:32:13;;;;;;;3.80;2.50;;;23.40;99.90;;;;;;5083253;28;20475;-83
2023/07/08 07:34:40;;;;;;;5.90;3.77;;;23.50;99.90;;;;;;5082585;28;20451;-83
2023/07/08 07:37:11;;;;;;;5.20;3.93;;;23.60;99.90;;;;;;5081424;28;20531;-83
2023/07/08 07:39:39;;;;;;;4.63;3.23;;;23.70;99.90;;;;;;5081499;28;20445;-83
2023/07/08 07:42:07;;;;;;;4.47;3.60;;;23.70;99.90;;;;;;5082482;28;20451;-84
2023/07/08 07:44:34;;;;;;;5.20;3.53;;;23.80;99.90;;;;;;5082102;28;20516;-84
2023/07/08 07:47:00;;;;;;;4.73;3.50;;;23.90;99.90;;;;;;5082505;28;20457;-83
2023/07/08 07:49:27;;;;;;;4.73;3.23;;;24.10;99.90;;;;;;5081879;28;20543;-83
2023/07/08 07:51:54;;;;;;;4.73;3.70;;;24.20;99.90;;;;;;5082851;28;21017;-83
2023/07/08 07:54:21;;;;;;;4.30;3.27;;;24.20;99.90;;;;;;5082823;28;20580;-84
2023/07/08 07:56:49;;;;;;;5.07;3.63;;;24.40;99.90;;;;;;5081412;28;20453;-82
2023/07/08 07:59:16;;;;;;;5.40;3.60;;;24.50;99.90;;;;;;5081808;28;20451;-83
2023/07/08 08:01:43;;;;;;;5.47;4.03;;;24.60;99.90;;;;;;5081498;28;20534;-84
2023/07/08 08:04:11;;;;;;;4.97;3.23;;;24.70;99.90;;;;;;5081988;28;20481;-84
2023/07/08 08:06:38;;;;;;;8.20;4.10;;;24.80;99.90;;;;;;5080914;28;21049;-83
2023/07/08 08:09:05;;;;;;;4.67;3.33;;;25.00;99.90;;;;;;5082357;28;20489;-84
2023/07/08 08:11:32;;;;;;;6.87;4.40;;;25.10;99.90;;;;;;5081509;28;20455;-84
2023/07/08 08:14:01;;;;;;;6.40;4.40;;;25.20;99.90;;;;;;5082194;28;20561;-84
2023/07/08 08:16:28;;;;;;;7.23;4.17;;;25.30;99.90;;;;;;5078940;28;20959;-84
2023/07/08 08:18:55;;;;;;;4.87;3.70;;;25.40;99.90;;;;;;5080298;28;20502;-81
2023/07/08 08:21:22;;;;;;;6.47;3.70;;;25.60;99.90;;;;;;5078664;28;20526;-82
2023/07/08 08:23:49;;;;;;;4.50;3.63;;;25.70;99.90;;;;;;5078443;28;20520;-81
2023/07/08 08:26:16;;;;;;;5.03;3.73;;;25.80;99.90;;;;;;5079983;28;20449;-81
2023/07/08 08:28:42;;;;;;;6.23;4.17;;;26.00;99.90;;;;;;5081632;28;20575;-81
2023/07/08 08:31:10;;;;;;;6.20;4.53;;;26.10;99.90;;;;;;5080145;28;20462;-81
2023/07/08 08:33:37;;;;;;;5.43;3.93;;;26.30;99.90;;;;;;5079592;28;20534;-82
2023/07/08 08:36:04;;;;;;;8.50;4.50;;;26.40;99.90;;;;;;5080628;28;21120;-81
2023/07/08 08:38:31;;;;;;;6.30;3.83;;;26.50;99.90;;;;;;5080243;28;20450;-81
2023/07/08 08:40:58;;;;;;;5.40;4.17;;;26.60;99.90;;;;;;5083653;28;20526;-80
2023/07/08 08:43:32;;;;;;;5.27;3.90;;;26.80;99.90;;;;;;5081245;28;20554;-80
2023/07/08 08:46:05;;;;;;;5.50;4.33;;;26.90;99.90;;;;;;5080662;28;20538;-80
2023/07/08 08:48:39;;;;;;;6.80;4.20;;;27.10;99.90;;;;;;5082459;28;20487;-81
2023/07/08 08:51:13;;;;;;;6.53;4.30;;;27.20;99.90;;;;;;5081772;28;20443;-81
2023/07/08 08:53:40;;;;;;;7.43;4.60;;;27.40;99.90;;;;;;5082488;28;20451;-81
2023/07/08 08:56:15;;;;;;;7.17;5.27;;;27.60;99.90;;;;;;5081709;28;20465;-82
2023/07/08 08:58:46;;;;;;;5.30;3.80;;;27.80;99.90;;;;;;5082083;28;20850;-81
2023/07/08 09:01:14;;;;;;;5.90;4.47;;;28.00;99.90;;;;;;5082336;28;20449;-82
2023/07/08 09:03:48;;;;;;;4.60;3.80;;;28.20;99.90;;;;;;5084657;28;20489;-81
2023/07/08 09:06:21;;;;;;;7.57;4.80;;;28.40;99.90;;;;;;5075995;28;20545;-80
2023/07/08 09:08:49;;;;;;;5.20;4.00;;;28.70;99.90;;;;;;5083817;28;20582;-82
2023/07/08 09:11:26;;;;;;;4.97;3.80;;;29.10;99.90;;;;;;5076267;28;20542;-80
2023/07/08 09:13:53;;;;;;;5.07;3.97;;;29.40;99.90;;;;;;5069505;28;20477;-79
2023/07/08 09:16:32;;;;;;;6.57;4.37;;;29.70;99.90;;;;;;5083161;28;20461;-81
2023/07/08 09:19:07;;;;;;;5.77;4.97;;;29.70;99.90;;;;;;5082992;28;20546;-82
2023/07/08 09:21:42;;;;;;;6.43;4.83;;;29.80;99.90;;;;;;5085649;28;20811;-81
2023/07/08 09:24:14;;;;;;;6.73;4.73;;;30.00;99.90;;;;;;5086257;28;20510;-80
2023/07/08 09:26:42;;;;;;;5.70;4.33;;;30.00;99.90;;;;;;5086776;28;20537;-82
2023/07/08 09:29:10;;;;;;;6.50;4.93;;;30.20;99.90;;;;;;5086236;28;20549;-81
2023/07/08 09:31:39;;;;;;;5.60;4.27;;;30.10;99.90;;;;;;5085133;28;20457;-82
2023/07/08 09:34:10;;;;;;;5.87;4.60;;;29.90;99.90;;;;;;5084686;28;20542;-81
2023/07/08 09:36:42;;;;;;;5.17;4.53;;;29.80;99.90;;;;;;5083056;28;20824;-82
2023/07/08 09:39:12;;;;;;;6.63;4.53;;;29.60;99.90;;;;;;5085858;28;20480;-82
2023/07/08 09:41:41;;;;;;;8.50;4.57;;;29.40;99.90;;;;;;5086990;28;20435;-78
2023/07/08 09:44:16;;;;;;;5.63;4.40;;;29.60;99.90;;;;;;5086630;28;20475;-82
2023/07/08 09:46:43;;;;;;;7.53;4.83;;;29.90;99.90;;;;;;5085439;28;20444;-81
2023/07/08 09:49:28;;;;;;;5.60;4.63;;;30.10;99.90;;;;;;5068390;28;20984;-81
2023/07/08 09:51:55;;;;;;;6.63;4.30;;;30.50;99.90;;;;;;5069593;28;20479;-82
2023/07/08 09:54:24;;;;;;;5.47;3.83;;;30.80;99.90;;;;;;5084937;28;20455;-82
2023/07/08 09:56:58;;;;;;;6.20;3.97;;;30.90;99.90;;;;;;5085793;28;20474;-81
2023/07/08 09:59:32;;;;;;;5.60;3.87;;;31.10;99.90;;;;;;5084291;28;20889;-81
2023/07/08 10:02:02;;;;;;;6.43;4.67;;;31.20;99.90;;;;;;5083493;28;20946;-81
2023/07/08 10:04:31;;;;;;;5.93;4.13;;;31.40;99.90;;;;;;5082272;28;20451;-81
2023/07/08 10:07:00;;;;;;;6.67;4.53;;;31.60;99.90;;;;;;5077855;28;20447;-82
2023/07/08 10:09:27;;;;;;;5.77;4.17;;;31.80;99.90;;;;;;5086304;28;20481;-82
2023/07/08 10:11:59;;;;;;;5.57;4.57;;;32.10;99.90;;;;;;5079270;28;20461;-82
2023/07/08 10:14:28;;;;;;;5.70;3.67;;;32.30;99.90;;;;;;5081951;28;20515;-82
2023/07/08 10:16:56;;;;;;;5.30;3.90;;;32.50;99.90;;;;;;5070143;28;20846;-82
2023/07/08 10:19:23;;;;;;;4.93;3.30;;;32.60;99.90;;;;;;5084536;28;20451;-83
2023/07/08 10:22:02;;;;;;;4.80;3.50;;;32.70;99.90;;;;;;5077502;28;20473;-83
2023/07/08 10:24:43;;;;;;;4.60;3.57;;;32.90;99.90;;;;;;5085180;28;20449;-81
2023/07/08 10:27:18;;;;;;;6.83;3.60;;;33.00;99.90;;;;;;5072879;28;20450;-82
2023/07/08 10:29:54;;;;;;;3.87;3.00;;;33.20;99.90;;;;;;5077671;28;20498;-83
2023/07/08 10:32:33;;;;;;;4.40;3.40;;;33.40;99.90;;;;;;5080412;28;20534;-82
2023/07/08 10:35:09;;;;;;;4.67;3.27;;;33.30;99.90;;;;;;5075158;28;20443;-82
2023/07/08 10:37:43;;;;;;;5.00;3.43;;;33.60;99.90;;;;;;5075749;28;20454;-81
2023/07/08 10:40:32;;;;;;;6.07;3.70;;;33.60;99.90;;;;;;5079659;28;20430;-82
2023/07/08 10:43:19;;;;;;;5.33;3.33;;;33.70;99.90;;;;;;5060909;28;20464;-82
2023/07/08 10:45:55;;;;;;;4.07;3.53;;;34.00;99.90;;;;;;5070805;28;20443;-82
2023/07/08 10:48:37;;;;;;;6.50;3.93;;;34.20;99.90;;;;;;5080408;28;20431;-84
2023/07/08 10:51:14;;;;;;;5.60;4.27;;;34.30;99.90;;;;;;5081058;28;20449;-82
2023/07/08 10:53:58;;;;;;;5.43;4.50;;;34.20;99.90;;;;;;5073415;28;20475;-82
2023/07/08 10:56:36;;;;;;;4.27;3.20;;;34.20;99.90;;;;;;5075962;28;20543;-83
2023/07/08 10:59:20;;;;;;;5.67;3.67;;;34.40;99.90;;;;;;5075176;28;20506;-82
2023/07/08 11:02:02;;;;;;;4.53;3.67;;;34.50;99.90;;;;;;5072376;28;20510;-82
2023/07/08 11:04:50;;;;;;;5.30;3.33;;;34.50;99.90;;;;;;5080509;28;20492;-81
2023/07/08 11:07:27;;;;;;;4.63;3.40;;;34.40;99.90;;;;;;5073937;28;20450;-81
2023/07/08 11:09:58;;;;;;;4.90;3.53;;;34.40;99.90;;;;;;5078076;28;20471;-81
2023/07/08 11:12:29;;;;;;;4.23;3.40;;;34.80;99.90;;;;;;5080388;28;20562;-82
2023/07/08 11:15:01;;;;;;;5.20;3.60;;;35.10;99.90;;;;;;5083086;28;20950;-84
2023/07/08 11:17:37;;;;;;;5.60;3.37;;;35.10;99.90;;;;;;5078141;28;20463;-83
2023/07/08 11:20:16;;;;;;;4.50;3.50;;;35.40;99.90;;;;;;5079013;28;20446;-82
2023/07/08 11:22:49;;;;;;;3.83;3.20;;;35.40;99.90;;;;;;5081137;28;20474;-83
2023/07/08 11:25:21;;;;;;;6.93;3.40;;;35.60;99.90;;;;;;5082265;28;20447;-81
2023/07/08 11:27:52;;;;;;;4.13;3.50;;;35.60;99.90;;;;;;5077532;28;20492;-82
2023/07/08 11:30:24;;;;;;;4.57;3.20;;;35.00;99.90;;;;;;5082566;28;20479;-83
2023/07/08 11:32:58;;;;;;;6.17;4.30;;;35.40;99.90;;;;;;5076957;28;20556;-83
2023/07/08 11:35:34;;;;;;;5.40;4.03;;;35.60;99.90;;;;;;5080452;28;20549;-83
2023/07/08 11:38:02;;;;;;;4.83;3.50;;;35.90;99.90;;;;;;5077436;28;20557;-83
2023/07/08 11:40:31;;;;;;;4.37;3.30;;;36.00;99.90;;;;;;5079945;28;20451;-83
2023/07/08 11:43:05;;;;;;;8.10;4.07;;;36.10;99.90;;;;;;5075062;28;20473;-85
2023/07/08 11:45:35;;;;;;;3.90;3.00;;;35.90;99.90;;;;;;5076297;28;20459;-82
2023/07/08 11:48:14;;;;;;;3.90;2.87;;;35.90;99.90;;;;;;5079204;28;20450;-82
2023/07/08 11:50:43;;;;;;;4.33;3.77;;;36.20;99.90;;;;;;5079951;28;20478;-83
2023/07/08 11:53:12;;;;;;;4.47;3.67;;;36.40;99.90;;;;;;5079433;28;20470;-82
2023/07/08 11:55:48;;;;;;;5.20;3.57;;;36.60;99.90;;;;;;5076663;28;20976;-82
2023/07/08 11:58:22;;;;;;;6.83;3.77;;;36.80;99.90;;;;;;5067538;28;20447;-82
2023/07/08 12:00:58;;;;;;;5.63;3.77;;;36.80;99.90;;;;;;5073335;28;20443;-82
2023/07/08 12:03:34;;;;;;;5.30;3.20;;;36.80;99.90;;;;;;5070715;28;21119;-82
2023/07/08 12:06:06;;;;;;;5.20;3.90;;;36.80;99.90;;;;;;5074670;28;20489;-83
2023/07/08 12:08:37;;;;;;;4.90;3.53;;;36.80;99.90;;;;;;5076039;28;20526;-82
2023/07/08 12:11:12;;;;;;;4.97;3.87;;;37.10;99.90;;;;;;5071313;28;20451;-83
2023/07/08 12:13:40;;;;;;;5.37;3.60;;;37.20;99.90;;;;;;5077368;28;20986;-83
2023/07/08 12:16:11;;;;;;;7.90;4.50;;;37.30;99.90;;;;;;5077696;28;20805;-84
2023/07/08 12:18:45;;;;;;;9.80;4.20;;;37.30;99.90;;;;;;5076253;28;20451;-83
2023/07/08 12:21:14;;;;;;;5.70;4.10;;;37.30;99.90;;;;;;5059506;28;20532;-81
2023/07/08 12:23:46;;;;;;;4.57;3.80;;;37.20;99.90;;;;;;5066008;28;20470;-83
2023/07/08 12:26:15;;;;;;;5.00;3.77;;;37.30;99.90;;;;;;5073844;28;20453;-82
2023/07/08 12:28:43;;;;;;;4.40;3.13;;;37.20;99.90;;;;;;5078517;28;20446;-84
2023/07/08 12:31:16;;;;;;;5.83;4.17;;;37.30;99.90;;;;;;5074251;28;20812;-82
2023/07/08 12:33:44;;;;;;;5.40;4.00;;;37.40;99.90;;;;;;5075366;28;20547;-83
2023/07/08 12:36:14;;;;;;;4.73;3.60;;;37.50;99.90;;;;;;5066730;28;20477;-82
2023/07/08 12:38:44;;;;;;;5.90;3.80;;;37.60;99.90;;;;;;5069237;28;20443;-82
2023/07/08 12:41:16;;;;;;;6.30;4.10;;;37.70;99.90;;;;;;5067307;28;20451;-83
2023/07/08 12:43:44;;;;;;;5.10;4.27;;;37.60;99.90;;;;;;5076690;28;20977;-80
2023/07/08 12:46:14;;;;;;;4.50;3.50;;;37.80;99.90;;;;;;5073756;28;20494;-84
2023/07/08 12:48:41;;;;;;;4.63;3.07;;;37.60;99.90;;;;;;5077192;28;20451;-81
2023/07/08 12:51:12;;;;;;;4.10;3.70;;;37.90;99.90;;;;;;5081400;28;20546;-84
2023/07/08 12:53:39;;;;;;;4.30;3.10;;;37.90;99.90;;;;;;5075223;28;20475;-82
2023/07/08 12:56:10;;;;;;;4.37;3.87;;;38.00;99.90;;;;;;5076379;28;20469;-83
2023/07/08 12:58:41;;;;;;;4.70;3.30;;;37.80;99.90;;;;;;5076031;28;20522;-83